createdAt,value
2023-02-17T00:08:43.585Z,8.75
2023-02-17T00:09:47.254Z,8.85
2023-02-17T00:10:59.941Z,8.43
2023-02-17T00:12:05.750Z,9.27
2023-02-17T00:13:09.822Z,9.00
2023-02-17T00:14:14.751Z,8.18
2023-02-17T00:15:18.456Z,8.05
2023-02-17T00:16:32.766Z,8.18
2023-02-17T00:17:45.178Z,7.80
2023-02-17T00:18:57.850Z,8.95
2023-02-17T00:20:01.788Z,8.15
2023-02-17T00:21:18.945Z,8.48
2023-02-17T00:22:22.562Z,9.02
2023-02-17T00:23:25.757Z,7.75
2023-02-17T00:24:32.734Z,9.70
2023-02-17T00:25:42.247Z,9.50
2023-02-17T00:26:48.395Z,8.15
2023-02-17T00:27:55.641Z,9.40
2023-02-17T00:29:01.077Z,9.10
2023-02-17T00:30:06.667Z,9.27
2023-02-17T00:31:31.153Z,7.63
2023-02-17T00:33:08.378Z,8.25
2023-02-17T00:34:42.884Z,9.90
2023-02-17T00:36:55.748Z,8.93
2023-02-17T00:38:07.891Z,10.32
2023-02-17T00:39:15.737Z,9.48
2023-02-17T00:40:20.911Z,10.27
2023-02-17T00:41:29.478Z,9.73
2023-02-17T00:42:35.552Z,9.55
2023-02-17T00:43:40.879Z,10.27
2023-02-17T00:44:49.980Z,9.73
2023-02-17T00:46:00.105Z,10.60
2023-02-17T00:47:15.619Z,10.43
2023-02-17T00:48:19.800Z,11.10
2023-02-17T00:49:26.664Z,10.73
2023-02-17T00:50:33.661Z,11.20
2023-02-17T00:51:42.073Z,9.55
2023-02-17T00:52:45.944Z,9.57
2023-02-17T00:53:51.418Z,10.07
2023-02-17T00:54:57.855Z,10.48
2023-02-17T00:56:03.208Z,10.77
2023-02-17T00:57:06.958Z,11.35
2023-02-17T00:58:11.890Z,11.63
2023-02-17T00:59:16.363Z,12.93
2023-02-17T01:00:21.056Z,12.90
2023-02-17T02:13:10.832Z,11.82
2023-02-17T02:14:37.224Z,13.23
2023-02-17T02:15:57.180Z,13.63
2023-02-17T02:17:12.131Z,13.95
2023-02-17T02:18:54.851Z,13.40
2023-02-17T02:20:12.917Z,13.52
2023-02-17T02:21:40.540Z,14.63
2023-02-17T02:23:21.259Z,15.65
2023-02-17T02:26:32.088Z,15.43
2023-02-17T02:27:46.208Z,15.80
2023-02-17T02:29:20.645Z,15.45
2023-02-17T02:30:29.852Z,15.18
2023-02-17T02:32:07.095Z,15.93
2023-02-17T02:33:49.705Z,14.70
2023-02-17T02:35:03.545Z,15.25
2023-02-17T02:36:30.270Z,16.27
2023-02-17T02:37:50.789Z,14.77
2023-02-17T02:39:18.302Z,15.02
2023-02-17T02:40:29.459Z,15.45
2023-02-17T02:41:46.696Z,17.52
2023-02-17T02:43:03.949Z,15.00
2023-02-17T02:44:12.756Z,16.35
2023-02-17T02:45:22.520Z,16.38
2023-02-17T02:46:26.950Z,16.60
2023-02-17T02:47:47.076Z,17.38
2023-02-17T02:48:54.299Z,16.27
2023-02-17T02:50:01.501Z,16.23
2023-02-17T02:51:16.629Z,17.30
2023-02-17T02:54:31.715Z,17.83
2023-02-17T02:56:01.459Z,16.90
2023-02-17T02:57:28.955Z,17.15
2023-02-17T03:07:55.456Z,16.30
2023-02-17T03:09:12.498Z,17.40
2023-02-17T03:10:19.487Z,19.52
2023-02-17T03:11:33.464Z,18.63
2023-02-17T03:12:40.054Z,17.88
2023-02-17T03:13:46.694Z,17.73
2023-02-17T03:14:55.053Z,17.50
2023-02-17T03:16:00.799Z,18.35
2023-02-17T03:17:05.568Z,18.85
2023-02-17T03:18:11.718Z,18.50
2023-02-17T03:19:24.886Z,17.48
2023-02-17T03:20:37.059Z,19.05
2023-02-17T03:21:55.577Z,17.30
2023-02-17T03:23:02.670Z,17.75
2023-02-17T03:24:10.018Z,19.08
2023-02-17T03:25:20.398Z,17.73
2023-02-17T03:26:27.696Z,18.17
2023-02-17T03:27:34.398Z,19.33
2023-02-17T03:28:41.701Z,18.98
2023-02-17T03:29:47.931Z,18.15
2023-02-17T03:30:52.834Z,18.35
2023-02-17T03:31:59.910Z,19.48
2023-02-17T03:33:05.418Z,17.80
2023-02-17T03:34:15.003Z,20.10
2023-02-17T03:35:19.915Z,20.13
2023-02-17T03:36:31.290Z,19.17
2023-02-17T03:37:43.042Z,18.65
2023-02-17T03:42:19.451Z,17.95
2023-02-17T03:43:28.036Z,19.05
2023-02-17T03:44:32.823Z,18.92
2023-02-17T03:45:38.677Z,20.13
2023-02-17T03:46:44.878Z,18.15
2023-02-17T03:47:51.275Z,18.92
2023-02-17T03:48:57.613Z,18.83
2023-02-17T03:50:05.133Z,19.85
2023-02-17T03:51:24.765Z,19.92
2023-02-17T03:52:36.258Z,19.10
2023-02-17T03:53:42.188Z,19.80
2023-02-17T03:54:47.087Z,18.75
2023-02-17T03:55:52.750Z,20.50
2023-02-17T03:57:02.825Z,19.88
2023-02-17T03:58:14.707Z,20.08
2023-02-17T03:59:20.535Z,20.25
2023-02-17T04:00:27.228Z,20.08
2023-02-17T04:01:31.564Z,20.83
2023-02-17T04:02:38.676Z,19.33
2023-02-17T04:03:44.618Z,20.17
2023-02-17T04:04:50.639Z,20.05
2023-02-17T04:05:55.877Z,19.45
2023-02-17T04:06:59.536Z,18.67
2023-02-17T04:08:07.033Z,19.30
2023-02-17T04:09:12.717Z,19.77
2023-02-17T04:10:16.287Z,19.60
2023-02-17T04:11:20.840Z,22.15
2023-02-17T04:12:30.124Z,19.80
2023-02-17T04:13:40.711Z,20.95
2023-02-17T04:14:44.928Z,20.85
2023-02-17T04:15:58.130Z,19.48
2023-02-17T04:17:03.225Z,19.38
2023-02-17T04:18:08.689Z,19.52
2023-02-17T04:19:49.029Z,21.38
2023-02-17T04:20:54.714Z,19.67
2023-02-17T04:56:33.685Z,16.50
2023-02-17T04:59:36.770Z,18.38
2023-02-17T05:00:59.880Z,21.73
2023-02-17T05:02:07.287Z,21.33
2023-02-17T05:05:11.518Z,23.17
2023-02-17T05:06:15.524Z,24.40
2023-02-17T05:07:49.472Z,23.60
2023-02-17T05:09:07.803Z,20.50
2023-02-17T05:10:56.692Z,23.23
2023-02-17T05:12:02.064Z,18.25
2023-02-17T05:13:22.208Z,17.58
2023-02-17T05:14:31.719Z,19.08
2023-02-17T05:22:13.324Z,18.33
2023-02-17T05:23:20.773Z,19.58
2023-02-17T05:24:25.929Z,17.77
2023-02-17T05:25:35.156Z,18.55
2023-02-17T05:26:43.138Z,18.98
2023-02-17T05:28:15.741Z,19.98
2023-02-17T15:13:32.342Z,15.23
2023-02-17T15:14:36.461Z,15.77
2023-02-17T15:15:46.074Z,15.27
2023-02-17T15:17:01.499Z,15.98
2023-02-17T15:18:11.846Z,16.08
2023-02-17T15:19:20.523Z,14.15
2023-02-17T15:20:30.974Z,15.43
2023-02-17T16:02:50.867Z,15.70
2023-02-17T16:03:57.042Z,16.33
2023-02-17T16:05:06.565Z,17.23
2023-02-17T17:22:51.637Z,20.08
2023-02-17T17:24:01.896Z,19.60
2023-02-17T17:25:10.848Z,19.83
2023-02-17T17:27:01.010Z,21.23
2023-02-17T17:43:03.149Z,23.63
2023-02-17T17:44:21.917Z,25.70
2023-02-17T17:45:32.526Z,25.65
2023-02-17T17:46:39.409Z,25.05
2023-02-17T17:49:11.214Z,25.42
2023-02-17T17:50:27.753Z,26.15
2023-02-17T17:51:40.171Z,24.83
2023-02-17T17:53:05.513Z,26.20
2023-02-17T17:55:42.080Z,25.73
2023-02-17T17:56:54.116Z,26.20
2023-02-17T17:58:07.580Z,26.17
2023-02-17T17:59:21.397Z,26.63
2023-02-17T18:00:35.353Z,25.02
2023-02-17T18:01:43.243Z,26.02
2023-02-17T18:02:49.125Z,27.77
2023-02-17T18:04:00.871Z,26.77
2023-02-17T18:05:11.796Z,27.15
2023-02-17T18:50:58.774Z,22.17
2023-02-17T18:52:01.547Z,23.33
2023-02-17T18:53:05.459Z,23.60
2023-02-17T18:54:13.040Z,23.65
2023-02-17T18:55:19.176Z,25.27
2023-02-17T18:56:26.778Z,24.17
2023-02-17T18:57:29.859Z,23.73
2023-02-17T18:58:42.464Z,23.60
2023-02-17T18:59:51.461Z,24.67
2023-02-17T19:00:55.225Z,24.55
2023-02-17T19:02:09.078Z,25.90
2023-02-17T19:05:02.317Z,23.70
2023-02-17T19:06:13.795Z,23.42
2023-02-17T19:07:17.076Z,25.50
2023-02-17T19:08:24.643Z,24.65
2023-02-17T19:09:45.268Z,23.73
2023-02-17T19:10:50.482Z,24.65
2023-02-17T19:11:54.699Z,25.48
2023-02-17T19:12:59.754Z,24.77
2023-02-17T19:14:06.836Z,25.10
2023-02-17T19:15:13.675Z,24.23
2023-02-17T19:16:24.599Z,25.10
2023-02-17T19:17:27.593Z,28.30
2023-02-17T19:18:31.531Z,24.75
2023-02-17T19:19:40.912Z,26.92
2023-02-17T19:20:45.993Z,23.65
2023-02-17T19:21:56.196Z,24.92
2023-02-17T19:23:03.730Z,22.50
2023-02-17T19:24:10.120Z,23.30
2023-02-17T19:25:13.857Z,23.10
2023-02-17T19:26:19.687Z,23.17
2023-02-17T19:27:22.952Z,22.75
2023-02-17T19:28:27.193Z,22.05
2023-02-17T19:29:31.770Z,23.27
2023-02-17T19:30:35.247Z,23.00
2023-02-17T19:31:42.018Z,23.27
2023-02-17T19:32:46.648Z,23.35
2023-02-17T19:33:49.811Z,22.85
2023-02-17T19:34:53.128Z,22.10
2023-02-17T19:35:56.801Z,22.33
2023-02-17T19:37:05.393Z,24.00
2023-02-17T19:38:12.367Z,23.55
2023-02-17T19:39:22.713Z,22.98
2023-02-17T19:40:26.649Z,23.40
2023-02-17T19:41:30.121Z,23.67
2023-02-17T19:42:33.982Z,23.33
2023-02-17T19:43:40.467Z,25.13
2023-02-17T19:44:44.310Z,24.25
2023-02-17T19:45:51.324Z,25.05
2023-02-17T19:46:58.950Z,25.67
2023-02-17T19:48:10.157Z,24.73
2023-02-17T19:49:21.588Z,26.65
2023-02-17T19:50:24.953Z,23.02
2023-02-17T19:51:32.104Z,23.73
2023-02-17T19:52:39.776Z,24.73
2023-02-17T19:53:44.177Z,25.08
2023-02-17T19:54:51.261Z,25.00
2023-02-17T19:55:54.649Z,25.77
2023-02-17T19:56:57.832Z,25.95
2023-02-17T19:58:03.807Z,26.05
2023-02-17T19:59:10.549Z,25.25
2023-02-17T20:00:18.942Z,25.88
2023-02-17T20:01:33.257Z,26.00
2023-02-17T20:02:36.929Z,27.02
2023-02-17T20:03:42.693Z,27.55
2023-02-17T20:04:46.034Z,25.60
2023-02-17T20:05:49.341Z,26.80
2023-02-17T20:06:53.660Z,26.27
2023-02-17T20:07:57.734Z,26.13
2023-02-17T20:09:06.316Z,25.75
2023-02-17T20:10:12.629Z,25.90
2023-02-17T20:11:15.313Z,26.85
2023-02-17T20:12:21.982Z,26.13
2023-02-17T20:13:25.888Z,27.05
2023-02-17T20:14:29.269Z,27.23
2023-02-17T20:15:31.331Z,26.08
2023-02-17T20:16:36.358Z,28.15
2023-02-17T20:17:41.598Z,32.75
2023-02-17T20:18:50.746Z,27.17
2023-02-17T20:19:53.663Z,27.50
2023-02-17T20:20:58.932Z,26.42
2023-02-17T20:22:01.242Z,26.02
2023-02-17T20:23:08.018Z,26.63
2023-02-17T20:24:09.931Z,25.50
2023-02-17T20:25:12.150Z,28.52
2023-02-17T20:26:21.778Z,26.75
2023-02-17T20:27:23.922Z,26.60
2023-02-17T20:28:28.586Z,26.95
2023-02-17T20:29:30.683Z,26.50
2023-02-17T20:30:32.760Z,26.17
2023-02-17T20:31:36.999Z,26.38
2023-02-17T20:32:39.695Z,27.27
2023-02-17T20:33:42.244Z,27.95
2023-02-17T20:34:45.783Z,26.20
2023-02-17T20:35:47.934Z,25.40
2023-02-17T20:36:49.961Z,25.60
2023-02-17T20:37:52.249Z,26.70
2023-02-17T20:38:54.376Z,25.70
2023-02-17T20:39:56.415Z,26.70
2023-02-17T20:41:00.399Z,26.20
2023-02-17T20:42:03.261Z,26.25
2023-02-17T20:43:06.477Z,25.92
2023-02-17T20:44:11.468Z,24.88
2023-02-17T20:45:13.557Z,27.08
2023-02-17T20:46:27.165Z,25.15
2023-02-17T20:47:29.424Z,25.58
2023-02-17T20:48:31.708Z,24.13
2023-02-17T20:49:33.686Z,25.80
2023-02-17T20:50:36.967Z,24.58
2023-02-17T20:51:38.922Z,26.85
2023-02-17T20:52:40.871Z,24.55
2023-02-17T20:53:42.920Z,25.08
2023-02-17T20:54:46.348Z,24.23
2023-02-17T20:55:48.537Z,24.40
2023-02-17T20:56:51.859Z,24.48
2023-02-17T20:57:54.368Z,24.17
2023-02-17T20:58:56.457Z,24.10
2023-02-17T20:59:58.460Z,24.65
2023-02-17T21:01:00.487Z,25.17
2023-02-17T21:02:02.527Z,24.02
2023-02-17T21:03:05.099Z,27.20
2023-02-17T21:04:08.171Z,26.40
2023-02-17T21:05:11.009Z,24.58
2023-02-17T21:06:31.438Z,24.90
2023-02-17T21:07:33.413Z,23.58
2023-02-17T21:08:35.382Z,25.27
2023-02-17T21:09:37.417Z,25.02
2023-02-17T21:10:40.868Z,25.73
2023-02-17T21:11:43.741Z,24.48
2023-02-17T21:12:46.303Z,23.45
2023-02-17T21:13:48.992Z,24.25
2023-02-17T21:14:50.942Z,24.55
2023-02-17T21:15:52.969Z,24.58
2023-02-17T21:16:54.959Z,25.05
2023-02-17T21:17:56.840Z,25.23
2023-02-17T21:19:01.312Z,24.65
2023-02-17T21:20:04.508Z,24.83
2023-02-17T21:21:06.980Z,25.80
2023-02-17T21:22:08.883Z,26.20
2023-02-17T21:23:10.834Z,26.77
2023-02-17T21:24:12.747Z,25.23
2023-02-17T21:25:14.769Z,25.55
2023-02-17T21:26:17.253Z,26.75
2023-02-17T21:27:19.564Z,26.05
2023-02-17T21:28:21.617Z,26.73
2023-02-17T21:29:23.667Z,25.33
2023-02-17T21:30:25.732Z,27.05
2023-02-17T21:31:29.143Z,26.55
2023-02-17T21:32:31.930Z,25.23
2023-02-17T21:33:34.117Z,27.25
2023-02-17T21:34:38.559Z,25.83
2023-02-17T21:35:40.627Z,27.75
2023-02-17T21:36:42.977Z,29.30
2023-02-17T21:37:45.366Z,26.48
2023-02-17T21:38:47.962Z,28.42
2023-02-17T21:39:50.054Z,27.60
2023-02-17T21:40:52.020Z,26.67
2023-02-17T21:41:55.595Z,27.05
2023-02-17T21:43:16.298Z,25.92
2023-02-17T21:44:36.743Z,28.67
2023-02-17T21:45:39.478Z,26.45
2023-02-17T21:46:43.376Z,28.33
2023-02-17T21:47:46.061Z,26.58
2023-02-17T21:48:48.755Z,27.17
2023-02-17T21:49:54.596Z,29.10
2023-02-17T21:51:07.036Z,28.05
2023-02-17T21:52:09.073Z,26.80
2023-02-17T21:53:10.944Z,26.20
2023-02-17T21:54:12.994Z,27.35
2023-02-17T21:55:14.965Z,27.30
2023-02-17T21:56:17.124Z,26.38
2023-02-17T21:57:19.744Z,27.33
2023-02-17T21:58:21.842Z,27.35
2023-02-17T21:59:26.084Z,27.30
2023-02-17T22:00:28.479Z,27.13
2023-02-17T22:01:31.266Z,27.33
2023-02-17T22:02:34.879Z,27.77
2023-02-17T22:03:36.775Z,28.65
2023-02-17T22:04:38.964Z,28.30
2023-02-17T22:05:40.981Z,29.42
2023-02-17T22:06:43.134Z,27.35
2023-02-17T22:07:48.981Z,29.23
2023-02-17T22:08:51.749Z,27.63
2023-02-17T22:09:53.677Z,29.85
2023-02-17T22:10:55.612Z,28.65
2023-02-17T22:11:57.692Z,28.40
2023-02-17T22:12:59.736Z,29.58
2023-02-17T22:14:05.119Z,28.58
2023-02-17T22:15:10.637Z,30.02
2023-02-17T22:16:13.237Z,28.75
2023-02-17T22:17:17.651Z,29.00
2023-02-17T22:18:19.631Z,28.25
2023-02-17T22:19:24.288Z,28.27
2023-02-17T22:20:27.269Z,29.65
2023-02-17T22:21:29.341Z,30.17
2023-02-17T22:22:31.260Z,28.73
2023-02-17T22:23:33.379Z,30.98
2023-02-17T22:24:35.384Z,29.60
2023-02-17T22:25:43.732Z,29.52
2023-02-17T22:26:45.916Z,28.55
2023-02-17T22:27:48.089Z,29.17
2023-02-17T22:28:50.941Z,30.50
2023-02-17T22:29:52.952Z,31.33
2023-02-17T22:30:54.865Z,30.42
2023-02-17T22:31:57.522Z,34.10
2023-02-17T22:32:59.626Z,30.70
2023-02-17T22:34:05.175Z,28.67
2023-02-17T22:35:07.161Z,31.25
2023-02-17T22:36:13.102Z,30.48
2023-02-17T22:37:15.100Z,30.70
2023-02-17T22:38:17.514Z,32.85
2023-02-17T22:39:19.558Z,31.83
2023-02-17T22:40:21.555Z,33.70
2023-02-17T22:41:25.844Z,33.28
2023-02-17T22:42:28.324Z,32.33
2023-02-17T22:43:30.740Z,32.92
2023-02-17T22:44:32.791Z,32.15
2023-02-17T22:45:34.773Z,32.10
2023-02-17T22:46:36.846Z,33.08
2023-02-17T22:47:38.776Z,33.20
2023-02-17T22:48:40.736Z,30.95
2023-02-17T22:49:43.100Z,30.85
2023-02-17T22:50:45.052Z,30.95
2023-02-17T22:51:47.001Z,31.73
2023-02-17T22:52:48.927Z,31.45
2023-02-17T22:53:51.031Z,30.48
2023-02-17T22:54:53.023Z,31.67
2023-02-17T22:55:56.295Z,32.20
2023-02-17T22:56:58.769Z,31.00
2023-02-17T22:58:01.034Z,31.55
2023-02-17T22:59:05.951Z,31.23
2023-02-17T23:00:08.281Z,31.92
2023-02-17T23:01:16.025Z,31.15
2023-02-17T23:02:17.964Z,30.75
2023-02-17T23:03:20.974Z,31.92
2023-02-17T23:04:22.979Z,31.63
2023-02-17T23:05:24.990Z,31.48
2023-02-17T23:06:30.189Z,31.02
2023-02-17T23:07:32.128Z,32.08
2023-02-17T23:08:34.810Z,32.33
2023-02-17T23:09:36.890Z,30.98
2023-02-17T23:10:43.593Z,32.13
2023-02-17T23:11:53.948Z,30.50
2023-02-17T23:12:56.119Z,29.48
2023-02-17T23:13:58.100Z,30.58
2023-02-17T23:15:01.236Z,30.08
2023-02-17T23:16:04.286Z,30.95
2023-02-17T23:17:09.749Z,32.05
2023-02-17T23:18:15.327Z,30.77
2023-02-17T23:19:19.626Z,31.08
2023-02-17T23:20:21.659Z,30.95
2023-02-17T23:21:23.556Z,30.38
2023-02-17T23:22:25.548Z,31.25
2023-02-17T23:23:27.531Z,32.10
2023-02-17T23:24:29.798Z,31.88
2023-02-17T23:25:31.989Z,32.60
2023-02-17T23:26:34.101Z,32.40
2023-02-17T23:27:35.995Z,31.95
2023-02-17T23:28:37.939Z,31.02
2023-02-17T23:29:41.486Z,30.55
2023-02-17T23:30:43.870Z,30.35
2023-02-17T23:31:46.092Z,30.85
2023-02-17T23:32:48.703Z,31.95
2023-02-17T23:33:50.801Z,29.75
2023-02-17T23:34:52.705Z,30.67
2023-02-17T23:35:54.630Z,30.52
2023-02-17T23:36:56.951Z,30.63
2023-02-17T23:37:59.410Z,31.15
2023-02-17T23:39:01.385Z,30.17
2023-02-17T23:40:04.827Z,29.15
2023-02-17T23:41:06.754Z,29.80
2023-02-17T23:42:08.766Z,30.58
2023-02-17T23:43:11.040Z,31.20
2023-02-17T23:44:15.663Z,32.22
2023-02-17T23:45:17.798Z,31.58
2023-02-17T23:46:20.844Z,30.05
2023-02-17T23:47:23.187Z,31.67
2023-02-17T23:48:25.098Z,29.42
2023-02-17T23:49:27.046Z,32.35
2023-02-17T23:50:28.897Z,31.17
2023-02-17T23:51:30.895Z,29.88
2023-02-17T23:52:34.826Z,31.35
2023-02-17T23:53:36.829Z,31.20
2023-02-17T23:54:38.809Z,29.95
2023-02-17T23:55:40.724Z,30.88
2023-02-17T23:56:42.842Z,29.95
2023-02-17T23:57:45.111Z,31.02
2023-02-17T23:58:46.965Z,29.02
2023-02-17T23:59:49.139Z,29.20
